sensor_id;sensor_type;location;lat;lon;timestamp;temperature;humidity
41262;DHT22;29629;52.532;13.352;2023-11-19T00:00:29;5.10;99.90
41262;DHT22;29629;52.532;13.352;2023-11-19T00:02:55;5.10;99.90
41262;DHT22;29629;52.532;13.352;2023-11-19T00:05:24;5.10;99.90
41262;DHT22;29629;52.532;13.352;2023-11-19T00:07:51;5.10;99.90
41262;DHT22;29629;52.532;13.352;2023-11-19T00:10:17;5.00;99.90
41262;DHT22;29629;52.532;13.352;2023-11-19T00:12:46;5.10;99.90
41262;DHT22;29629;52.532;13.352;2023-11-19T00:15:13;5.10;99.90
41262;DHT22;29629;52.532;13.352;2023-11-19T00:17:41;5.10;99.90
41262;DHT22;29629;52.532;13.352;2023-11-19T00:20:11;5.10;99.90
41262;DHT22;29629;52.532;13.352;2023-11-19T00:22:39;5.10;99.90
41262;DHT22;29629;52.532;13.352;2023-11-19T00:25:06;5.10;99.90
41262;DHT22;29629;52.532;13.352;2023-11-19T00:27:33;5.10;99.90
41262;DHT22;29629;52.532;13.352;2023-11-19T00:30:01;5.20;99.90
41262;DHT22;29629;52.532;13.352;2023-11-19T00:32:30;5.20;99.90
41262;DHT22;29629;52.532;13.352;2023-11-19T00:34:58;5.20;99.90
41262;DHT22;29629;52.532;13.352;2023-11-19T00:37:25;5.20;99.90
41262;DHT22;29629;52.532;13.352;2023-11-19T00:39:53;5.20;99.90
41262;DHT22;29629;52.532;13.352;2023-11-19T00:42:21;5.20;99.90
41262;DHT22;29629;52.532;13.352;2023-11-19T00:44:49;5.30;99.90
41262;DHT22;29629;52.532;13.352;2023-11-19T00:47:16;5.30;99.90
41262;DHT22;29629;52.532;13.352;2023-11-19T00:49:46;5.30;99.90
41262;DHT22;29629;52.532;13.352;2023-11-19T00:52:14;5.30;99.90
41262;DHT22;29629;52.532;13.352;2023-11-19T00:54:40;5.30;99.90
41262;DHT22;29629;52.532;13.352;2023-11-19T00:57:09;5.30;99.90
41262;DHT22;29629;52.532;13.352;2023-11-19T00:59:35;5.30;99.90
41262;DHT22;29629;52.532;13.352;2023-11-19T01:02:03;5.40;99.90
41262;DHT22;29629;52.532;13.352;2023-11-19T01:04:33;5.40;99.90
41262;DHT22;29629;52.532;13.352;2023-11-19T01:07:02;5.30;99.90
41262;DHT22;29629;52.532;13.352;2023-11-19T01:09:30;5.20;99.90
41262;DHT22;29629;52.532;13.352;2023-11-19T01:12:00;5.30;99.90
41262;DHT22;29629;52.532;13.352;2023-11-19T01:14:29;5.40;99.90
41262;DHT22;29629;52.532;13.352;2023-11-19T01:16:55;5.30;99.90
41262;DHT22;29629;52.532;13.352;2023-11-19T01:19:23;5.40;99.90
41262;DHT22;29629;52.532;13.352;2023-11-19T01:21:50;5.40;99.90
41262;DHT22;29629;52.532;13.352;2023-11-19T01:24:17;5.40;99.90
41262;DHT22;29629;52.532;13.352;2023-11-19T01:26:44;5.40;99.90
41262;DHT22;29629;52.532;13.352;2023-11-19T01:29:11;5.40;99.90
41262;DHT22;29629;52.532;13.352;2023-11-19T01:31:40;5.40;99.90
41262;DHT22;29629;52.532;13.352;2023-11-19T01:34:08;5.40;99.90
41262;DHT22;29629;52.532;13.352;2023-11-19T01:36:35;5.40;99.90
41262;DHT22;29629;52.532;13.352;2023-11-19T01:39:02;5.50;99.90
41262;DHT22;29629;52.532;13.352;2023-11-19T01:41:33;5.40;99.90
41262;DHT22;29629;52.532;13.352;2023-11-19T01:44:00;5.40;99.90
41262;DHT22;29629;52.532;13.352;2023-11-19T01:46:27;5.50;99.90
41262;DHT22;29629;52.532;13.352;2023-11-19T01:48:57;5.50;99.90
41262;DHT22;29629;52.532;13.352;2023-11-19T01:51:24;5.50;99.90
41262;DHT22;29629;52.532;13.352;2023-11-19T01:53:51;5.50;99.90
41262;DHT22;29629;52.532;13.352;2023-11-19T01:56:19;5.50;99.90
41262;DHT22;29629;52.532;13.352;2023-11-19T01:58:48;5.50;99.90
41262;DHT22;29629;52.532;13.352;2023-11-19T02:01:16;5.40;99.90
41262;DHT22;29629;52.532;13.352;2023-11-19T02:03:43;5.40;99.90
41262;DHT22;29629;52.532;13.352;2023-11-19T02:06:12;5.30;99.90
41262;DHT22;29629;52.532;13.352;2023-11-19T02:08:39;5.40;99.90
41262;DHT22;29629;52.532;13.352;2023-11-19T02:11:06;5.30;99.90
41262;DHT22;29629;52.532;13.352;2023-11-19T02:13:34;5.30;99.90
41262;DHT22;29629;52.532;13.352;2023-11-19T02:16:02;5.40;99.90
41262;DHT22;29629;52.532;13.352;2023-11-19T02:18:30;5.30;99.90
41262;DHT22;29629;52.532;13.352;2023-11-19T02:20:57;5.30;99.90
41262;DHT22;29629;52.532;13.352;2023-11-19T02:23:27;5.30;99.90
41262;DHT22;29629;52.532;13.352;2023-11-19T02:26:13;5.30;99.90
41262;DHT22;29629;52.532;13.352;2023-11-19T02:28:43;5.30;99.90
41262;DHT22;29629;52.532;13.352;2023-11-19T02:31:10;5.30;99.90
41262;DHT22;29629;52.532;13.352;2023-11-19T02:33:37;5.30;99.90
41262;DHT22;29629;52.532;13.352;2023-11-19T02:36:05;5.40;99.90
41262;DHT22;29629;52.532;13.352;2023-11-19T02:38:33;5.40;99.90
41262;DHT22;29629;52.532;13.352;2023-11-19T02:41:02;5.40;99.90
41262;DHT22;29629;52.532;13.352;2023-11-19T02:43:30;5.40;99.90
41262;DHT22;29629;52.532;13.352;2023-11-19T02:46:00;5.40;99.90
41262;DHT22;29629;52.532;13.352;2023-11-19T02:48:27;5.40;99.90
41262;DHT22;29629;52.532;13.352;2023-11-19T02:50:54;5.50;99.90
41262;DHT22;29629;52.532;13.352;2023-11-19T02:53:23;5.50;99.90
41262;DHT22;29629;52.532;13.352;2023-11-19T02:55:53;5.50;99.90
41262;DHT22;29629;52.532;13.352;2023-11-19T02:58:26;5.50;99.90
41262;DHT22;29629;52.532;13.352;2023-11-19T03:00:54;5.50;99.90
41262;DHT22;29629;52.532;13.352;2023-11-19T03:03:27;5.50;99.90
41262;DHT22;29629;52.532;13.352;2023-11-19T03:06:04;5.50;99.90
41262;DHT22;29629;52.532;13.352;2023-11-19T03:08:31;5.60;99.90
41262;DHT22;29629;52.532;13.352;2023-11-19T03:10:58;5.60;99.90
41262;DHT22;29629;52.532;13.352;2023-11-19T03:13:25;5.60;99.90
41262;DHT22;29629;52.532;13.352;2023-11-19T03:15:52;5.60;99.90
41262;DHT22;29629;52.532;13.352;2023-11-19T03:18:19;5.60;99.90
41262;DHT22;29629;52.532;13.352;2023-11-19T03:20:47;5.60;99.90
41262;DHT22;29629;52.532;13.352;2023-11-19T03:23:15;5.50;99.90
41262;DHT22;29629;52.532;13.352;2023-11-19T03:25:42;5.60;99.90
41262;DHT22;29629;52.532;13.352;2023-11-19T03:28:09;5.50;99.90
41262;DHT22;29629;52.532;13.352;2023-11-19T03:30:36;5.50;99.90
41262;DHT22;29629;52.532;13.352;2023-11-19T03:33:03;5.50;99.90
41262;DHT22;29629;52.532;13.352;2023-11-19T03:35:30;5.50;99.90
41262;DHT22;29629;52.532;13.352;2023-11-19T03:38:00;5.30;99.90
41262;DHT22;29629;52.532;13.352;2023-11-19T03:40:28;5.10;99.90
41262;DHT22;29629;52.532;13.352;2023-11-19T03:42:56;5.10;99.90
41262;DHT22;29629;52.532;13.352;2023-11-19T03:45:23;5.00;99.90
41262;DHT22;29629;52.532;13.352;2023-11-19T03:47:51;5.00;99.90
41262;DHT22;29629;52.532;13.352;2023-11-19T03:50:18;4.90;99.90
41262;DHT22;29629;52.532;13.352;2023-11-19T03:52:45;4.80;99.90
41262;DHT22;29629;52.532;13.352;2023-11-19T03:55:14;4.70;99.90
41262;DHT22;29629;52.532;13.352;2023-11-19T03:57:41;4.60;99.90
41262;DHT22;29629;52.532;13.352;2023-11-19T04:00:08;4.60;99.90
41262;DHT22;29629;52.532;13.352;2023-11-19T04:02:39;4.50;99.90
41262;DHT22;29629;52.532;13.352;2023-11-19T04:05:07;4.50;99.90
41262;DHT22;29629;52.532;13.352;2023-11-19T04:07:35;4.50;99.90
41262;DHT22;29629;52.532;13.352;2023-11-19T04:10:02;4.50;99.90
41262;DHT22;29629;52.532;13.352;2023-11-19T04:12:30;4.50;99.90
41262;DHT22;29629;52.532;13.352;2023-11-19T04:14:57;4.50;99.90
41262;DHT22;29629;52.532;13.352;2023-11-19T04:17:24;4.50;99.90
41262;DHT22;29629;52.532;13.352;2023-11-19T04:19:51;4.60;99.90
41262;DHT22;29629;52.532;13.352;2023-11-19T04:22:18;4.60;99.90
41262;DHT22;29629;52.532;13.352;2023-11-19T04:24:45;4.50;99.90
41262;DHT22;29629;52.532;13.352;2023-11-19T04:27:12;4.50;99.90
41262;DHT22;29629;52.532;13.352;2023-11-19T04:29:40;4.60;99.90
41262;DHT22;29629;52.532;13.352;2023-11-19T04:32:07;4.60;99.90
41262;DHT22;29629;52.532;13.352;2023-11-19T04:34:34;4.60;99.90
41262;DHT22;29629;52.532;13.352;2023-11-19T04:37:03;4.60;99.90
41262;DHT22;29629;52.532;13.352;2023-11-19T04:39:30;4.60;99.90
41262;DHT22;29629;52.532;13.352;2023-11-19T04:41:57;4.70;99.90
41262;DHT22;29629;52.532;13.352;2023-11-19T04:44:25;4.60;99.90
41262;DHT22;29629;52.532;13.352;2023-11-19T04:46:53;4.60;99.90
41262;DHT22;29629;52.532;13.352;2023-11-19T04:49:20;4.60;99.90
41262;DHT22;29629;52.532;13.352;2023-11-19T04:51:47;4.60;99.90
41262;DHT22;29629;52.532;13.352;2023-11-19T04:54:14;4.70;99.90
41262;DHT22;29629;52.532;13.352;2023-11-19T04:56:45;4.70;99.90
41262;DHT22;29629;52.532;13.352;2023-11-19T04:59:12;4.70;99.90
41262;DHT22;29629;52.532;13.352;2023-11-19T05:01:39;4.70;99.90
41262;DHT22;29629;52.532;13.352;2023-11-19T05:04:07;4.70;99.90
41262;DHT22;29629;52.532;13.352;2023-11-19T05:06:34;4.70;99.90
41262;DHT22;29629;52.532;13.352;2023-11-19T05:09:01;4.70;99.90
41262;DHT22;29629;52.532;13.352;2023-11-19T05:11:30;4.60;99.90
41262;DHT22;29629;52.532;13.352;2023-11-19T05:13:57;4.70;99.90
41262;DHT22;29629;52.532;13.352;2023-11-19T05:16:24;4.60;99.90
41262;DHT22;29629;52.532;13.352;2023-11-19T05:18:51;4.70;99.90
41262;DHT22;29629;52.532;13.352;2023-11-19T05:21:20;4.70;99.90
41262;DHT22;29629;52.532;13.352;2023-11-19T05:23:47;4.60;99.90
41262;DHT22;29629;52.532;13.352;2023-11-19T05:26:18;4.70;99.90
41262;DHT22;29629;52.532;13.352;2023-11-19T05:28:45;4.70;99.90
41262;DHT22;29629;52.532;13.352;2023-11-19T05:31:12;4.60;99.90
41262;DHT22;29629;52.532;13.352;2023-11-19T05:33:39;4.70;99.90
41262;DHT22;29629;52.532;13.352;2023-11-19T05:36:07;4.70;99.90
41262;DHT22;29629;52.532;13.352;2023-11-19T05:38:36;4.70;99.90
41262;DHT22;29629;52.532;13.352;2023-11-19T05:41:04;4.70;99.90
41262;DHT22;29629;52.532;13.352;2023-11-19T05:43:31;4.70;99.90
41262;DHT22;29629;52.532;13.352;2023-11-19T05:45:58;4.70;99.90
41262;DHT22;29629;52.532;13.352;2023-11-19T05:48:26;4.70;99.90
41262;DHT22;29629;52.532;13.352;2023-11-19T05:50:53;4.70;99.90
41262;DHT22;29629;52.532;13.352;2023-11-19T05:53:20;4.70;99.90
41262;DHT22;29629;52.532;13.352;2023-11-19T05:55:49;4.70;99.90
41262;DHT22;29629;52.532;13.352;2023-11-19T05:58:23;4.70;99.90
41262;DHT22;29629;52.532;13.352;2023-11-19T06:00:51;4.70;99.90
41262;DHT22;29629;52.532;13.352;2023-11-19T06:03:18;4.80;99.90
41262;DHT22;29629;52.532;13.352;2023-11-19T06:05:45;4.80;99.90
41262;DHT22;29629;52.532;13.352;2023-11-19T06:08:12;4.80;99.90
41262;DHT22;29629;52.532;13.352;2023-11-19T06:10:40;4.80;99.90
41262;DHT22;29629;52.532;13.352;2023-11-19T06:13:08;4.80;99.90
41262;DHT22;29629;52.532;13.352;2023-11-19T06:15:37;6.20;99.90
41262;DHT22;29629;52.532;13.352;2023-11-19T06:18:04;6.20;99.90
41262;DHT22;29629;52.532;13.352;2023-11-19T06:20:32;6.20;99.90
41262;DHT22;29629;52.532;13.352;2023-11-19T06:22:59;6.30;99.90
41262;DHT22;29629;52.532;13.352;2023-11-19T06:25:26;6.10;99.90
41262;DHT22;29629;52.532;13.352;2023-11-19T06:27:53;6.10;99.90
41262;DHT22;29629;52.532;13.352;2023-11-19T06:30:21;6.10;99.90
41262;DHT22;29629;52.532;13.352;2023-11-19T06:32:48;6.20;99.90
41262;DHT22;29629;52.532;13.352;2023-11-19T06:35:15;6.20;99.90
41262;DHT22;29629;52.532;13.352;2023-11-19T06:37:43;6.20;99.90
41262;DHT22;29629;52.532;13.352;2023-11-19T06:40:11;6.20;99.90
41262;DHT22;29629;52.532;13.352;2023-11-19T06:42:38;6.20;99.90
41262;DHT22;29629;52.532;13.352;2023-11-19T06:45:06;6.20;99.90
41262;DHT22;29629;52.532;13.352;2023-11-19T06:47:35;6.30;99.90
41262;DHT22;29629;52.532;13.352;2023-11-19T06:50:02;6.20;99.90
41262;DHT22;29629;52.532;13.352;2023-11-19T06:52:31;6.20;99.90
41262;DHT22;29629;52.532;13.352;2023-11-19T06:54:58;6.40;99.90
41262;DHT22;29629;52.532;13.352;2023-11-19T06:57:25;6.30;99.90
41262;DHT22;29629;52.532;13.352;2023-11-19T06:59:54;6.30;99.90
41262;DHT22;29629;52.532;13.352;2023-11-19T07:02:21;6.30;99.90
41262;DHT22;29629;52.532;13.352;2023-11-19T07:04:49;6.50;99.90
41262;DHT22;29629;52.532;13.352;2023-11-19T07:07:16;6.40;99.90
41262;DHT22;29629;52.532;13.352;2023-11-19T07:09:43;6.30;99.90
41262;DHT22;29629;52.532;13.352;2023-11-19T07:12:10;6.30;99.90
41262;DHT22;29629;52.532;13.352;2023-11-19T07:14:38;6.30;99.90
41262;DHT22;29629;52.532;13.352;2023-11-19T07:17:05;6.40;99.90
41262;DHT22;29629;52.532;13.352;2023-11-19T07:19:34;6.40;99.90
41262;DHT22;29629;52.532;13.352;2023-11-19T07:22:03;6.40;99.90
41262;DHT22;29629;52.532;13.352;2023-11-19T07:24:31;6.50;99.90
41262;DHT22;29629;52.532;13.352;2023-11-19T07:26:58;6.50;99.90
41262;DHT22;29629;52.532;13.352;2023-11-19T07:29:25;6.60;99.90
41262;DHT22;29629;52.532;13.352;2023-11-19T07:31:52;6.60;99.90
41262;DHT22;29629;52.532;13.352;2023-11-19T07:34:22;6.50;99.90
41262;DHT22;29629;52.532;13.352;2023-11-19T07:36:49;6.50;99.90
41262;DHT22;29629;52.532;13.352;2023-11-19T07:39:17;6.50;99.90
41262;DHT22;29629;52.532;13.352;2023-11-19T07:41:44;6.50;99.90
41262;DHT22;29629;52.532;13.352;2023-11-19T07:44:11;6.60;99.90
41262;DHT22;29629;52.532;13.352;2023-11-19T07:46:38;6.60;99.90
41262;DHT22;29629;52.532;13.352;2023-11-19T07:49:05;6.70;99.90
41262;DHT22;29629;52.532;13.352;2023-11-19T07:51:32;6.70;99.90
41262;DHT22;29629;52.532;13.352;2023-11-19T07:53:59;6.70;99.90
41262;DHT22;29629;52.532;13.352;2023-11-19T07:56:30;6.70;99.90
41262;DHT22;29629;52.532;13.352;2023-11-19T07:58:57;6.90;99.90
41262;DHT22;29629;52.532;13.352;2023-11-19T08:01:24;6.80;99.90
41262;DHT22;29629;52.532;13.352;2023-11-19T08:03:50;6.80;99.90
41262;DHT22;29629;52.532;13.352;2023-11-19T08:06:17;6.80;99.90
41262;DHT22;29629;52.532;13.352;2023-11-19T08:08:44;6.90;99.90
41262;DHT22;29629;52.532;13.352;2023-11-19T08:11:13;6.90;99.90
41262;DHT22;29629;52.532;13.352;2023-11-19T08:13:42;7.00;99.90
41262;DHT22;29629;52.532;13.352;2023-11-19T08:16:09;7.00;99.90
41262;DHT22;29629;52.532;13.352;2023-11-19T08:18:36;7.10;99.90
41262;DHT22;29629;52.532;13.352;2023-11-19T08:21:03;7.00;99.90
41262;DHT22;29629;52.532;13.352;2023-11-19T08:23:30;7.10;99.90
41262;DHT22;29629;52.532;13.352;2023-11-19T08:25:57;7.20;99.90
41262;DHT22;29629;52.532;13.352;2023-11-19T08:28:25;7.20;99.90
41262;DHT22;29629;52.532;13.352;2023-11-19T08:30:54;7.30;99.90
41262;DHT22;29629;52.532;13.352;2023-11-19T08:33:21;7.40;99.90
41262;DHT22;29629;52.532;13.352;2023-11-19T08:35:49;7.40;99.90
41262;DHT22;29629;52.532;13.352;2023-11-19T08:38:16;7.40;99.90
41262;DHT22;29629;52.532;13.352;2023-11-19T08:40:43;7.40;99.90
41262;DHT22;29629;52.532;13.352;2023-11-19T08:43:10;7.40;99.90
41262;DHT22;29629;52.532;13.352;2023-11-19T08:45:37;7.40;99.90
41262;DHT22;29629;52.532;13.352;2023-11-19T08:48:05;7.60;99.90
41262;DHT22;29629;52.532;13.352;2023-11-19T08:50:32;7.70;99.90
41262;DHT22;29629;52.532;13.352;2023-11-19T08:53:00;7.80;99.90
41262;DHT22;29629;52.532;13.352;2023-11-19T08:55:27;7.80;99.90
41262;DHT22;29629;52.532;13.352;2023-11-19T08:57:54;7.80;99.90
41262;DHT22;29629;52.532;13.352;2023-11-19T09:00:21;7.90;99.90
41262;DHT22;29629;52.532;13.352;2023-11-19T09:02:48;7.80;99.90
41262;DHT22;29629;52.532;13.352;2023-11-19T09:05:16;7.90;99.90
41262;DHT22;29629;52.532;13.352;2023-11-19T09:07:43;7.90;99.90
41262;DHT22;29629;52.532;13.352;2023-11-19T09:10:10;8.00;99.90
41262;DHT22;29629;52.532;13.352;2023-11-19T09:12:37;8.00;99.90
41262;DHT22;29629;52.532;13.352;2023-11-19T09:15:04;8.20;99.90
41262;DHT22;29629;52.532;13.352;2023-11-19T09:17:32;8.20;99.90
41262;DHT22;29629;52.532;13.352;2023-11-19T09:19:59;8.30;99.90
41262;DHT22;29629;52.532;13.352;2023-11-19T09:22:27;8.40;99.90
41262;DHT22;29629;52.532;13.352;2023-11-19T09:24:54;8.40;99.90
41262;DHT22;29629;52.532;13.352;2023-11-19T09:27:21;8.60;99.90
41262;DHT22;29629;52.532;13.352;2023-11-19T09:29:47;8.60;99.90
41262;DHT22;29629;52.532;13.352;2023-11-19T09:32:15;8.70;99.90
41262;DHT22;29629;52.532;13.352;2023-11-19T09:34:42;8.80;99.90
41262;DHT22;29629;52.532;13.352;2023-11-19T09:37:09;8.80;99.90
41262;DHT22;29629;52.532;13.352;2023-11-19T09:39:37;9.00;99.90
41262;DHT22;29629;52.532;13.352;2023-11-19T09:42:04;9.00;99.90
41262;DHT22;29629;52.532;13.352;2023-11-19T09:44:31;9.10;99.90
41262;DHT22;29629;52.532;13.352;2023-11-19T09:46:59;9.30;99.90
41262;DHT22;29629;52.532;13.352;2023-11-19T09:49:27;9.30;99.90
41262;DHT22;29629;52.532;13.352;2023-11-19T09:51:54;9.20;99.90
41262;DHT22;29629;52.532;13.352;2023-11-19T09:54:21;9.40;99.90
41262;DHT22;29629;52.532;13.352;2023-11-19T09:56:50;9.50;99.90
41262;DHT22;29629;52.532;13.352;2023-11-19T09:59:17;9.50;99.90
41262;DHT22;29629;52.532;13.352;2023-11-19T10:01:45;9.70;99.90
41262;DHT22;29629;52.532;13.352;2023-11-19T10:04:15;9.70;99.90
41262;DHT22;29629;52.532;13.352;2023-11-19T10:06:43;9.70;99.90
41262;DHT22;29629;52.532;13.352;2023-11-19T10:09:12;9.80;99.90
41262;DHT22;29629;52.532;13.352;2023-11-19T10:11:40;9.80;99.90
41262;DHT22;29629;52.532;13.352;2023-11-19T10:14:09;9.90;99.90
41262;DHT22;29629;52.532;13.352;2023-11-19T10:16:38;10.10;99.90
41262;DHT22;29629;52.532;13.352;2023-11-19T10:19:05;10.20;99.90
41262;DHT22;29629;52.532;13.352;2023-11-19T10:21:33;10.40;99.90
41262;DHT22;29629;52.532;13.352;2023-11-19T10:24:01;10.30;99.90
41262;DHT22;29629;52.532;13.352;2023-11-19T10:26:27;10.30;99.90
41262;DHT22;29629;52.532;13.352;2023-11-19T10:28:56;10.30;99.90
41262;DHT22;29629;52.532;13.352;2023-11-19T10:31:24;10.50;99.90
41262;DHT22;29629;52.532;13.352;2023-11-19T10:33:52;10.60;99.90
41262;DHT22;29629;52.532;13.352;2023-11-19T10:36:19;10.70;99.90
41262;DHT22;29629;52.532;13.352;2023-11-19T10:38:53;10.80;99.90
41262;DHT22;29629;52.532;13.352;2023-11-19T10:41:27;11.00;99.90
41262;DHT22;29629;52.532;13.352;2023-11-19T10:43:54;11.10;99.90
41262;DHT22;29629;52.532;13.352;2023-11-19T10:46:21;11.20;99.90
41262;DHT22;29629;52.532;13.352;2023-11-19T10:48:50;11.20;99.90
41262;DHT22;29629;52.532;13.352;2023-11-19T10:51:19;11.30;99.90
41262;DHT22;29629;52.532;13.352;2023-11-19T10:53:49;11.50;99.90
41262;DHT22;29629;52.532;13.352;2023-11-19T10:56:17;11.60;99.90
41262;DHT22;29629;52.532;13.352;2023-11-19T10:58:49;11.70;99.90
41262;DHT22;29629;52.532;13.352;2023-11-19T11:01:19;11.80;99.90
41262;DHT22;29629;52.532;13.352;2023-11-19T11:03:47;11.60;99.90
41262;DHT22;29629;52.532;13.352;2023-11-19T11:06:18;11.60;99.90
41262;DHT22;29629;52.532;13.352;2023-11-19T11:08:46;11.60;99.90
41262;DHT22;29629;52.532;13.352;2023-11-19T11:11:15;11.60;99.90
41262;DHT22;29629;52.532;13.352;2023-11-19T11:13:43;11.70;99.90
41262;DHT22;29629;52.532;13.352;2023-11-19T11:16:11;11.70;99.90
41262;DHT22;29629;52.532;13.352;2023-11-19T11:18:38;11.80;99.90
41262;DHT22;29629;52.532;13.352;2023-11-19T11:21:15;11.80;99.90
41262;DHT22;29629;52.532;13.352;2023-11-19T11:24:14;11.80;99.90
41262;DHT22;29629;52.532;13.352;2023-11-19T11:27:16;11.90;99.90
41262;DHT22;29629;52.532;13.352;2023-11-19T11:29:54;11.80;99.90
41262;DHT22;29629;52.532;13.352;2023-11-19T11:32:33;11.80;99.90
41262;DHT22;29629;52.532;13.352;2023-11-19T11:35:21;11.80;99.90
41262;DHT22;29629;52.532;13.352;2023-11-19T11:37:59;11.90;99.90
41262;DHT22;29629;52.532;13.352;2023-11-19T11:40:28;12.00;99.90
41262;DHT22;29629;52.532;13.352;2023-11-19T11:42:56;12.00;99.90
41262;DHT22;29629;52.532;13.352;2023-11-19T11:45:36;12.10;99.90
41262;DHT22;29629;52.532;13.352;2023-11-19T11:48:09;12.30;99.90
41262;DHT22;29629;52.532;13.352;2023-11-19T11:50:52;12.40;99.90
41262;DHT22;29629;52.532;13.352;2023-11-19T11:53:21;12.40;99.90
41262;DHT22;29629;52.532;13.352;2023-11-19T11:55:57;12.40;99.90
41262;DHT22;29629;52.532;13.352;2023-11-19T11:58:32;12.40;99.90
41262;DHT22;29629;52.532;13.352;2023-11-19T12:01:02;12.40;99.90
41262;DHT22;29629;52.532;13.352;2023-11-19T12:03:31;12.40;99.90
41262;DHT22;29629;52.532;13.352;2023-11-19T12:05:58;12.30;99.90
41262;DHT22;29629;52.532;13.352;2023-11-19T12:08:27;12.30;99.90
41262;DHT22;29629;52.532;13.352;2023-11-19T12:10:57;12.30;99.90
41262;DHT22;29629;52.532;13.352;2023-11-19T12:13:47;12.30;99.90
41262;DHT22;29629;52.532;13.352;2023-11-19T12:16:19;12.30;99.90
41262;DHT22;29629;52.532;13.352;2023-11-19T12:18:47;12.30;99.90
41262;DHT22;29629;52.532;13.352;2023-11-19T12:21:28;12.30;99.90
41262;DHT22;29629;52.532;13.352;2023-11-19T12:23:55;12.30;99.90
41262;DHT22;29629;52.532;13.352;2023-11-19T12:26:37;12.30;99.90
41262;DHT22;29629;52.532;13.352;2023-11-19T12:29:04;12.30;99.90
41262;DHT22;29629;52.532;13.352;2023-11-19T12:31:32;12.30;99.90
41262;DHT22;29629;52.532;13.352;2023-11-19T12:34:08;12.20;99.90
41262;DHT22;29629;52.532;13.352;2023-11-19T12:36:38;12.20;99.90
41262;DHT22;29629;52.532;13.352;2023-11-19T12:39:06;12.20;99.90
41262;DHT22;29629;52.532;13.352;2023-11-19T12:41:53;12.10;99.90
41262;DHT22;29629;52.532;13.352;2023-11-19T12:44:20;12.10;99.90
41262;DHT22;29629;52.532;13.352;2023-11-19T12:46:59;12.10;99.90
41262;DHT22;29629;52.532;13.352;2023-11-19T12:49:27;12.00;99.90
41262;DHT22;29629;52.532;13.352;2023-11-19T12:51:54;12.10;99.90
41262;DHT22;29629;52.532;13.352;2023-11-19T12:54:32;12.20;99.90
41262;DHT22;29629;52.532;13.352;2023-11-19T12:57:00;12.20;99.90
41262;DHT22;29629;52.532;13.352;2023-11-19T12:59:27;12.20;99.90
41262;DHT22;29629;52.532;13.352;2023-11-19T13:01:55;12.20;99.90
41262;DHT22;29629;52.532;13.352;2023-11-19T13:04:22;12.20;99.90
41262;DHT22;29629;52.532;13.352;2023-11-19T13:06:50;12.20;99.90
41262;DHT22;29629;52.532;13.352;2023-11-19T13:09:23;12.20;99.90
41262;DHT22;29629;52.532;13.352;2023-11-19T13:11:51;12.20;99.90
41262;DHT22;29629;52.532;13.352;2023-11-19T13:14:20;12.20;99.90
41262;DHT22;29629;52.532;13.352;2023-11-19T13:16:47;12.20;99.90
41262;DHT22;29629;52.532;13.352;2023-11-19T13:19:14;12.20;99.90
41262;DHT22;29629;52.532;13.352;2023-11-19T13:21:44;12.20;99.90
41262;DHT22;29629;52.532;13.352;2023-11-19T13:24:12;12.20;99.90
41262;DHT22;29629;52.532;13.352;2023-11-19T13:26:39;12.20;99.90
41262;DHT22;29629;52.532;13.352;2023-11-19T13:29:07;12.20;99.90
41262;DHT22;29629;52.532;13.352;2023-11-19T13:31:37;12.10;99.90
41262;DHT22;29629;52.532;13.352;2023-11-19T13:34:04;12.10;99.90
41262;DHT22;29629;52.532;13.352;2023-11-19T13:36:33;12.10;99.90
41262;DHT22;29629;52.532;13.352;2023-11-19T13:39:00;12.10;99.90
41262;DHT22;29629;52.532;13.352;2023-11-19T13:41:26;12.00;99.90
41262;DHT22;29629;52.532;13.352;2023-11-19T13:43:53;12.10;99.90
41262;DHT22;29629;52.532;13.352;2023-11-19T13:46:20;12.00;99.90
41262;DHT22;29629;52.532;13.352;2023-11-19T13:48:49;12.00;99.90
41262;DHT22;29629;52.532;13.352;2023-11-19T13:51:16;12.10;99.90
41262;DHT22;29629;52.532;13.352;2023-11-19T13:53:43;12.10;99.90
41262;DHT22;29629;52.532;13.352;2023-11-19T13:56:10;12.10;99.90
41262;DHT22;29629;52.532;13.352;2023-11-19T13:58:37;12.00;99.90
41262;DHT22;29629;52.532;13.352;2023-11-19T14:01:04;12.10;99.90
41262;DHT22;29629;52.532;13.352;2023-11-19T14:03:31;12.00;99.90
41262;DHT22;29629;52.532;13.352;2023-11-19T14:06:00;12.00;99.90
41262;DHT22;29629;52.532;13.352;2023-11-19T14:08:28;11.90;99.90
41262;DHT22;29629;52.532;13.352;2023-11-19T14:10:55;11.90;99.90
41262;DHT22;29629;52.532;13.352;2023-11-19T14:13:22;11.90;99.90
41262;DHT22;29629;52.532;13.352;2023-11-19T14:15:49;11.90;99.90
41262;DHT22;29629;52.532;13.352;2023-11-19T14:18:16;12.00;99.90
41262;DHT22;29629;52.532;13.352;2023-11-19T14:20:44;12.00;99.90
41262;DHT22;29629;52.532;13.352;2023-11-19T14:23:12;12.00;99.90
41262;DHT22;29629;52.532;13.352;2023-11-19T14:25:39;11.90;99.90
41262;DHT22;29629;52.532;13.352;2023-11-19T14:28:06;11.90;99.90
41262;DHT22;29629;52.532;13.352;2023-11-19T14:30:33;11.90;99.90
41262;DHT22;29629;52.532;13.352;2023-11-19T14:33:00;11.90;99.90
41262;DHT22;29629;52.532;13.352;2023-11-19T14:35:27;11.90;99.90
41262;DHT22;29629;52.532;13.352;2023-11-19T14:37:55;11.90;99.90
41262;DHT22;29629;52.532;13.352;2023-11-19T14:40:24;11.90;99.90
41262;DHT22;29629;52.532;13.352;2023-11-19T14:42:51;11.90;99.90
41262;DHT22;29629;52.532;13.352;2023-11-19T14:45:18;11.90;99.90
41262;DHT22;29629;52.532;13.352;2023-11-19T14:47:45;11.80;99.90
41262;DHT22;29629;52.532;13.352;2023-11-19T14:50:12;11.80;99.90
41262;DHT22;29629;52.532;13.352;2023-11-19T14:52:39;11.80;99.90
41262;DHT22;29629;52.532;13.352;2023-11-19T14:55:06;11.90;99.90
41262;DHT22;29629;52.532;13.352;2023-11-19T14:57:36;11.90;99.90
41262;DHT22;29629;52.532;13.352;2023-11-19T15:00:05;11.80;99.90
41262;DHT22;29629;52.532;13.352;2023-11-19T15:02:39;11.80;99.90
41262;DHT22;29629;52.532;13.352;2023-11-19T15:05:07;11.70;99.90
41262;DHT22;29629;52.532;13.352;2023-11-19T15:07:35;11.70;99.90
41262;DHT22;29629;52.532;13.352;2023-11-19T15:10:02;11.70;99.90
41262;DHT22;29629;52.532;13.352;2023-11-19T15:12:29;11.70;99.90
41262;DHT22;29629;52.532;13.352;2023-11-19T15:14:58;11.70;99.90
41262;DHT22;29629;52.532;13.352;2023-11-19T15:17:24;11.70;99.90
41262;DHT22;29629;52.532;13.352;2023-11-19T15:19:51;11.60;99.90
41262;DHT22;29629;52.532;13.352;2023-11-19T15:22:18;11.60;99.90
41262;DHT22;29629;52.532;13.352;2023-11-19T15:24:45;11.60;99.90
41262;DHT22;29629;52.532;13.352;2023-11-19T15:27:12;11.60;99.90
41262;DHT22;29629;52.532;13.352;2023-11-19T15:29:39;11.50;99.90
41262;DHT22;29629;52.532;13.352;2023-11-19T15:32:07;11.50;99.90